createdAt,value
2022-08-12T00:00:34.029Z,8.80
2022-08-12T00:02:03.060Z,9.30
2022-08-12T00:02:33.726Z,8.10
2022-08-12T00:03:34.217Z,7.90
2022-08-12T00:04:33.665Z,10.40
2022-08-12T00:05:33.647Z,8.60
2022-08-12T00:06:33.688Z,8.40
2022-08-12T00:07:34.377Z,7.30
2022-08-12T00:08:36.809Z,8.30
2022-08-12T00:09:33.624Z,6.60
2022-08-12T00:10:33.617Z,11.40
2022-08-12T00:11:33.629Z,7.30
2022-08-12T00:12:34.406Z,7.40
2022-08-12T00:13:33.596Z,9.80
2022-08-12T00:14:33.597Z,8.20
2022-08-12T00:15:33.593Z,7.60
2022-08-12T00:16:33.615Z,9.00
2022-08-12T00:17:33.718Z,8.20
2022-08-12T00:18:33.826Z,6.30
2022-08-12T00:19:33.557Z,9.30
2022-08-12T00:20:33.546Z,8.20
2022-08-12T00:21:33.554Z,8.50
2022-08-12T00:22:33.910Z,7.50
2022-08-12T00:23:33.656Z,7.10
2022-08-12T00:24:33.555Z,8.00
2022-08-12T00:26:05.701Z,7.50
2022-08-12T00:26:34.185Z,9.60
2022-08-12T00:27:43.926Z,7.00
2022-08-12T00:28:33.507Z,7.60
2022-08-12T00:29:33.492Z,6.90
2022-08-12T00:30:34.115Z,8.50
2022-08-12T00:31:33.515Z,8.20
2022-08-12T00:32:35.288Z,6.90
2022-08-12T00:33:35.766Z,7.60
2022-08-12T00:34:33.483Z,7.10
2022-08-12T00:35:36.836Z,8.60
2022-08-12T00:36:35.869Z,8.90
2022-08-12T00:37:33.479Z,9.30
2022-08-12T00:38:33.519Z,7.70
2022-08-12T00:39:33.624Z,9.10
2022-08-12T00:40:33.433Z,7.60
2022-08-12T00:41:33.406Z,8.20
2022-08-12T00:42:33.416Z,6.40
2022-08-12T00:43:33.482Z,7.40
2022-08-12T00:44:33.713Z,9.30
2022-08-12T00:45:33.713Z,7.40
2022-08-12T00:46:33.827Z,7.80
2022-08-12T00:47:33.382Z,9.20
2022-08-12T00:48:33.353Z,7.80
2022-08-12T00:49:33.465Z,8.50
2022-08-12T00:50:33.552Z,9.00
2022-08-12T00:51:33.332Z,8.20
2022-08-12T00:52:33.363Z,8.30
2022-08-12T00:53:33.323Z,7.00
2022-08-12T00:54:33.325Z,9.80
2022-08-12T00:55:33.303Z,9.10
2022-08-12T00:56:33.299Z,7.60
2022-08-12T00:57:33.302Z,10.60
2022-08-12T00:58:33.591Z,7.70
2022-08-12T00:59:33.272Z,8.60
2022-08-12T01:00:33.282Z,8.70
2022-08-12T01:02:02.292Z,8.20
2022-08-12T01:02:33.312Z,8.50
2022-08-12T01:03:33.311Z,8.30
2022-08-12T01:04:33.270Z,7.40
2022-08-12T01:05:33.271Z,8.70
2022-08-12T01:06:33.261Z,8.50
2022-08-12T01:07:33.349Z,8.20
2022-08-12T01:08:33.271Z,7.90
2022-08-12T01:09:33.204Z,6.80
2022-08-12T01:10:33.393Z,8.00
2022-08-12T01:11:33.243Z,7.20
2022-08-12T01:12:33.219Z,8.30
2022-08-12T01:13:33.220Z,6.80
2022-08-12T01:14:33.170Z,7.20
2022-08-12T01:15:33.167Z,7.30
2022-08-12T01:16:33.519Z,8.80
2022-08-12T01:17:34.360Z,11.90
2022-08-12T01:18:33.164Z,9.40
2022-08-12T01:19:33.149Z,10.00
2022-08-12T01:20:33.137Z,8.00
2022-08-12T01:21:33.134Z,7.20
2022-08-12T01:22:33.129Z,7.40
2022-08-12T01:23:33.108Z,8.90
2022-08-12T01:24:33.109Z,8.20
2022-08-12T01:25:33.088Z,7.70
2022-08-12T01:26:33.088Z,8.60
2022-08-12T01:27:33.099Z,8.30
2022-08-12T01:28:33.139Z,9.10
2022-08-12T01:29:33.577Z,8.20
2022-08-12T01:30:34.808Z,7.60
2022-08-12T01:31:33.059Z,9.80
2022-08-12T01:32:33.059Z,8.80
2022-08-12T01:33:33.125Z,8.90
2022-08-12T01:34:36.444Z,6.60
2022-08-12T01:35:33.019Z,9.30
2022-08-12T01:36:33.018Z,8.50
2022-08-12T01:37:33.019Z,9.00
2022-08-12T01:38:33.361Z,7.30
2022-08-12T01:39:33.040Z,7.60
2022-08-12T01:40:35.696Z,7.90
2022-08-12T01:41:32.987Z,9.10
2022-08-12T01:42:32.978Z,8.00
2022-08-12T01:43:32.977Z,8.50
2022-08-12T01:44:32.986Z,9.90
2022-08-12T01:45:43.291Z,8.60
2022-08-12T01:46:32.954Z,9.60
2022-08-12T01:47:33.446Z,8.80
2022-08-12T01:48:33.017Z,7.20
2022-08-12T01:49:32.925Z,8.50
2022-08-12T01:50:32.937Z,8.10
2022-08-12T01:52:16.041Z,10.40
2022-08-12T01:52:32.936Z,9.10
2022-08-12T01:53:32.977Z,7.50
2022-08-12T01:54:32.905Z,8.50
2022-08-12T01:55:33.487Z,9.10
2022-08-12T01:56:32.885Z,9.20
2022-08-12T01:57:59.312Z,10.10
2022-08-12T01:58:32.896Z,9.90
2022-08-12T01:59:32.863Z,7.20
2022-08-12T02:00:35.944Z,9.90
2022-08-12T02:01:32.889Z,7.60
2022-08-12T02:02:32.846Z,7.40
2022-08-12T02:03:32.847Z,9.10
2022-08-12T02:04:32.933Z,9.70
2022-08-12T02:05:33.367Z,8.10
2022-08-12T02:06:32.815Z,8.30
2022-08-12T02:07:33.454Z,10.70
2022-08-12T02:08:33.284Z,8.70
2022-08-12T02:09:32.963Z,9.60
2022-08-12T02:10:49.271Z,7.40
2022-08-12T02:11:32.792Z,9.10
2022-08-12T02:12:32.774Z,8.00
2022-08-12T02:13:41.960Z,8.50
2022-08-12T02:14:32.993Z,8.10
2022-08-12T02:15:32.973Z,9.00
2022-08-12T02:16:32.753Z,9.80
2022-08-12T02:17:56.177Z,8.70
2022-08-12T02:18:32.933Z,9.70
2022-08-12T02:19:33.156Z,8.70
2022-08-12T02:20:35.316Z,10.10
2022-08-12T02:21:33.352Z,8.30
2022-08-12T02:22:32.903Z,8.40
2022-08-12T02:23:32.782Z,9.00
2022-08-12T02:24:32.709Z,8.90
2022-08-12T02:25:32.689Z,11.30
2022-08-12T02:26:32.875Z,9.50
2022-08-12T02:27:33.391Z,8.70
2022-08-12T02:28:33.291Z,7.60
2022-08-12T02:29:32.687Z,10.90
2022-08-12T02:30:33.261Z,10.40
2022-08-12T02:31:32.914Z,7.40
2022-08-12T02:32:32.640Z,8.90
2022-08-12T02:33:32.622Z,9.50
2022-08-12T02:34:32.655Z,10.20
2022-08-12T02:35:32.633Z,9.20
2022-08-12T02:36:32.871Z,8.00
2022-08-12T02:37:32.600Z,10.40
2022-08-12T02:38:32.588Z,9.80
2022-08-12T02:39:32.660Z,11.20
2022-08-12T02:40:32.571Z,9.00
2022-08-12T02:41:32.580Z,12.20
2022-08-12T02:42:32.579Z,9.20
2022-08-12T02:43:32.561Z,9.80
2022-08-12T02:44:33.215Z,8.80
2022-08-12T02:45:33.351Z,11.00
2022-08-12T02:46:32.568Z,8.20
2022-08-12T02:48:00.855Z,7.70
2022-08-12T02:48:32.520Z,8.30
2022-08-12T02:49:32.630Z,8.20
2022-08-12T02:50:32.739Z,9.20
2022-08-12T02:51:32.499Z,9.80
2022-08-12T02:52:32.492Z,8.30
2022-08-12T02:53:32.762Z,10.00
2022-08-12T02:54:32.970Z,10.00
2022-08-12T02:55:34.984Z,9.80
2022-08-12T02:56:32.466Z,8.60
2022-08-12T02:57:32.790Z,11.00
2022-08-12T02:58:33.667Z,9.30
2022-08-12T02:59:32.457Z,9.10
2022-08-12T03:00:32.435Z,8.80
2022-08-12T03:01:32.558Z,10.60
2022-08-12T03:02:32.726Z,11.20
2022-08-12T03:03:32.769Z,9.00
2022-08-12T03:04:33.415Z,8.70
2022-08-12T03:05:32.466Z,10.10
2022-08-12T03:06:32.504Z,9.80
2022-08-12T03:07:55.810Z,9.10
2022-08-12T03:08:33.197Z,8.60
2022-08-12T03:09:35.851Z,10.00
2022-08-12T03:10:36.773Z,8.90
2022-08-12T03:11:32.366Z,8.10
2022-08-12T03:12:34.163Z,10.40
2022-08-12T03:13:32.386Z,9.30
2022-08-12T03:14:32.346Z,8.00
2022-08-12T03:15:32.349Z,8.50
2022-08-12T03:16:33.306Z,10.10
2022-08-12T03:17:32.755Z,7.70
2022-08-12T03:18:32.329Z,10.30
2022-08-12T03:19:32.315Z,9.30
2022-08-12T03:20:32.329Z,11.90
2022-08-12T03:21:55.506Z,9.00
2022-08-12T03:22:33.265Z,8.30
2022-08-12T03:23:32.278Z,8.00
2022-08-12T03:24:32.275Z,9.30
2022-08-12T03:25:32.276Z,8.20
2022-08-12T03:26:32.425Z,8.40
2022-08-12T03:27:32.245Z,9.30
2022-08-12T03:28:32.244Z,12.70
2022-08-12T03:29:32.232Z,12.90
2022-08-12T03:30:32.245Z,10.00
2022-08-12T03:31:32.226Z,8.70
2022-08-12T03:32:35.723Z,10.00
2022-08-12T03:33:32.205Z,9.10
2022-08-12T03:34:32.534Z,10.90
2022-08-12T03:35:40.403Z,8.20
2022-08-12T03:36:32.192Z,9.60
2022-08-12T03:37:32.888Z,8.90
2022-08-12T03:38:32.182Z,11.20
2022-08-12T03:39:35.409Z,8.60
2022-08-12T03:40:32.173Z,8.40
2022-08-12T03:41:32.163Z,9.60
2022-08-12T03:42:32.155Z,9.90
2022-08-12T03:43:32.145Z,8.50
2022-08-12T03:44:32.334Z,8.30
2022-08-12T03:45:32.142Z,8.40
2022-08-12T03:46:32.114Z,10.50
2022-08-12T03:47:32.102Z,10.30
2022-08-12T03:48:32.103Z,10.70
2022-08-12T03:49:32.109Z,10.10
2022-08-12T03:50:32.107Z,8.60
2022-08-12T03:51:32.091Z,8.50
2022-08-12T03:52:32.553Z,10.60
2022-08-12T03:53:32.062Z,8.50
2022-08-12T03:54:32.086Z,11.10
2022-08-12T03:55:32.990Z,9.40
2022-08-12T03:56:32.272Z,9.30
2022-08-12T03:57:32.591Z,10.30
2022-08-12T03:58:32.041Z,11.00
2022-08-12T03:59:32.021Z,10.90
2022-08-12T04:00:32.070Z,12.70
2022-08-12T04:01:32.165Z,9.60
2022-08-12T04:02:32.009Z,11.30
2022-08-12T04:03:31.991Z,10.50
2022-08-12T04:04:31.991Z,9.90
2022-08-12T04:05:54.740Z,10.10
2022-08-12T04:06:34.323Z,11.90
2022-08-12T04:07:31.965Z,9.00
2022-08-12T04:08:31.961Z,10.40
2022-08-12T04:09:32.060Z,10.30
2022-08-12T04:10:31.949Z,8.80
2022-08-12T04:11:32.315Z,10.30
2022-08-12T04:12:32.688Z,10.90
2022-08-12T04:13:31.922Z,11.50
2022-08-12T04:14:31.922Z,10.50
2022-08-12T04:15:31.906Z,10.40
2022-08-12T04:16:31.926Z,10.50
2022-08-12T04:17:31.899Z,9.50
2022-08-12T04:18:31.890Z,11.70
2022-08-12T04:19:32.348Z,16.50
2022-08-12T04:20:31.879Z,19.00
2022-08-12T04:21:32.091Z,15.00
2022-08-12T04:22:31.911Z,9.20
2022-08-12T04:23:32.498Z,9.90
2022-08-12T04:24:32.077Z,10.50
2022-08-12T04:25:31.848Z,10.10
2022-08-12T04:26:31.869Z,11.30
2022-08-12T04:27:32.910Z,9.80
2022-08-12T04:28:31.826Z,9.00
2022-08-12T04:30:31.073Z,10.70
2022-08-12T04:30:33.799Z,10.70
2022-08-12T04:31:31.938Z,10.20
2022-08-12T04:32:32.547Z,10.30
2022-08-12T04:33:31.785Z,8.80
2022-08-12T04:34:31.840Z,10.90
2022-08-12T04:35:31.776Z,9.10
2022-08-12T04:36:31.789Z,10.20
2022-08-12T04:37:59.002Z,9.60
2022-08-12T04:38:31.757Z,9.80
2022-08-12T04:39:31.806Z,8.70
2022-08-12T04:40:31.806Z,9.90
2022-08-12T04:41:31.735Z,10.40
2022-08-12T04:42:31.790Z,11.50
2022-08-12T04:43:59.826Z,10.70
2022-08-12T04:44:31.797Z,9.30
2022-08-12T04:45:32.325Z,11.90
2022-08-12T04:46:33.703Z,10.90
2022-08-12T04:47:31.916Z,9.90
2022-08-12T04:48:31.739Z,11.20
2022-08-12T04:49:31.933Z,11.30
2022-08-12T04:50:35.265Z,9.30
2022-08-12T04:51:31.844Z,8.70
2022-08-12T04:52:40.702Z,10.40
2022-08-12T04:53:32.164Z,11.40
2022-08-12T04:54:31.642Z,9.90
2022-08-12T04:55:31.623Z,9.60
2022-08-12T04:56:35.575Z,9.60
2022-08-12T04:57:32.083Z,10.70
2022-08-12T04:58:31.703Z,11.00
2022-08-12T04:59:31.610Z,10.60
2022-08-12T05:00:31.634Z,10.60
2022-08-12T05:01:31.583Z,11.80
2022-08-12T05:02:31.822Z,11.20
2022-08-12T05:03:45.824Z,11.10
2022-08-12T05:04:31.571Z,11.20
2022-08-12T05:05:35.827Z,11.20
2022-08-12T05:06:31.554Z,10.50
2022-08-12T05:07:31.561Z,12.40
2022-08-12T05:08:31.550Z,11.00
2022-08-12T05:09:59.266Z,8.90
2022-08-12T05:10:33.120Z,11.50
2022-08-12T05:11:31.575Z,9.60
2022-08-12T05:12:31.615Z,10.40
2022-08-12T05:13:31.501Z,9.60
2022-08-12T05:14:35.698Z,11.50
2022-08-12T05:15:31.600Z,8.50
2022-08-12T05:16:34.109Z,8.90
2022-08-12T05:17:31.553Z,10.50
2022-08-12T05:18:31.871Z,10.50
2022-08-12T05:19:31.943Z,9.80
2022-08-12T05:20:31.542Z,12.80
2022-08-12T05:21:31.461Z,11.50
2022-08-12T05:22:31.554Z,11.30
2022-08-12T05:23:31.441Z,10.00
2022-08-12T05:24:32.179Z,10.90
2022-08-12T05:25:32.189Z,10.80
2022-08-12T05:26:32.301Z,9.60
2022-08-12T05:27:31.420Z,12.50
2022-08-12T05:28:31.408Z,14.00
2022-08-12T05:30:05.654Z,14.90
2022-08-12T05:30:31.912Z,14.70
2022-08-12T05:31:47.217Z,14.10
2022-08-12T05:32:31.460Z,14.00
2022-08-12T05:33:31.419Z,14.20
2022-08-12T05:34:32.058Z,16.50
2022-08-12T05:35:31.358Z,15.90
2022-08-12T05:36:31.349Z,12.20
2022-08-12T05:37:31.960Z,14.20
2022-08-12T05:38:31.359Z,13.30
2022-08-12T05:39:31.448Z,15.90
2022-08-12T05:40:31.880Z,10.80
2022-08-12T05:41:31.988Z,13.50
2022-08-12T05:42:41.229Z,14.90
2022-08-12T05:43:31.322Z,12.00
2022-08-12T05:44:31.508Z,13.90
2022-08-12T05:45:31.627Z,17.50
2022-08-12T05:46:31.307Z,12.40
2022-08-12T05:47:42.814Z,15.70
2022-08-12T05:48:31.288Z,14.10
2022-08-12T05:49:31.257Z,13.40
2022-08-12T05:50:31.248Z,11.80
2022-08-12T05:51:39.764Z,13.90
2022-08-12T05:52:31.249Z,13.90
2022-08-12T05:53:31.237Z,13.30
2022-08-12T05:54:56.254Z,14.40
2022-08-12T05:55:31.741Z,15.10
2022-08-12T05:56:31.687Z,13.40
2022-08-12T05:57:31.815Z,13.30
2022-08-12T05:58:31.286Z,14.60
2022-08-12T05:59:31.297Z,11.30
2022-08-12T06:00:31.228Z,15.60
2022-08-12T06:02:10.549Z,17.20
2022-08-12T06:02:31.669Z,13.30
2022-08-12T06:03:31.228Z,13.20
2022-08-12T06:04:31.846Z,14.00
2022-08-12T06:05:31.147Z,15.20
2022-08-12T06:06:31.707Z,11.90
2022-08-12T06:07:42.825Z,12.30
2022-08-12T06:08:31.363Z,10.90
2022-08-12T06:09:31.984Z,15.40
2022-08-12T06:10:31.786Z,11.60
2022-08-12T06:11:31.105Z,11.40
2022-08-12T06:12:31.526Z,13.00
2022-08-12T06:13:53.750Z,13.60
2022-08-12T06:14:31.717Z,15.10
2022-08-12T06:15:31.078Z,14.80
2022-08-12T06:16:31.075Z,12.20
2022-08-12T06:17:31.067Z,14.50
2022-08-12T06:18:31.166Z,11.70
2022-08-12T06:20:22.883Z,10.50
2022-08-12T06:20:33.666Z,10.30
2022-08-12T06:21:31.754Z,11.40
2022-08-12T06:22:31.362Z,9.70
2022-08-12T06:23:31.055Z,9.30
2022-08-12T06:24:31.025Z,9.70
2022-08-12T06:25:31.015Z,8.90
2022-08-12T06:26:31.005Z,9.50
2022-08-12T06:27:30.994Z,9.60
2022-08-12T06:28:31.314Z,8.80
2022-08-12T06:30:06.584Z,7.80
2022-08-12T06:30:36.843Z,8.80
2022-08-12T06:31:31.429Z,7.70
2022-08-12T06:32:31.036Z,10.10
2022-08-12T06:33:55.881Z,10.60
2022-08-12T06:35:26.916Z,9.40
2022-08-12T06:35:48.546Z,9.20
2022-08-12T06:36:33.615Z,10.00
2022-08-12T06:37:30.923Z,8.90
2022-08-12T06:38:30.944Z,9.50
2022-08-12T06:39:31.819Z,10.50
2022-08-12T06:40:31.176Z,9.70
2022-08-12T06:41:30.905Z,9.70
2022-08-12T06:42:33.222Z,9.80
2022-08-12T06:43:31.193Z,9.90
2022-08-12T06:44:30.904Z,8.10
2022-08-12T06:45:45.830Z,8.60
2022-08-12T06:46:30.865Z,11.30
2022-08-12T06:47:30.860Z,8.40
2022-08-12T06:48:30.944Z,7.80
2022-08-12T06:49:30.843Z,9.20
2022-08-12T06:50:30.854Z,9.10
2022-08-12T06:51:30.833Z,9.60
2022-08-12T06:52:31.179Z,8.60
2022-08-12T06:53:30.922Z,8.00
2022-08-12T06:54:32.084Z,13.10
2022-08-12T06:55:30.813Z,10.80
2022-08-12T06:57:01.962Z,8.30
2022-08-12T06:57:57.085Z,9.50
2022-08-12T06:58:32.332Z,7.80
2022-08-12T06:59:30.783Z,7.20
2022-08-12T07:00:32.680Z,12.40
2022-08-12T07:01:30.829Z,11.40
2022-08-12T07:02:36.328Z,8.20
2022-08-12T07:03:30.769Z,12.90
2022-08-12T07:04:36.799Z,10.50
2022-08-12T07:05:30.733Z,10.30
2022-08-12T07:06:31.057Z,9.20
2022-08-12T07:07:31.163Z,15.00
2022-08-12T07:08:30.743Z,13.50
2022-08-12T07:10:07.088Z,10.60
2022-08-12T07:10:30.700Z,12.90
2022-08-12T07:11:30.884Z,7.60
2022-08-12T07:12:30.779Z,8.50
2022-08-12T07:13:30.733Z,8.90
2022-08-12T07:14:31.580Z,8.00
2022-08-12T07:15:31.239Z,8.30
2022-08-12T07:16:30.653Z,8.40
2022-08-12T07:17:30.652Z,8.40
2022-08-12T07:18:30.644Z,10.50
2022-08-12T07:19:40.522Z,10.30
2022-08-12T07:20:51.728Z,7.90
2022-08-12T07:22:00.104Z,8.70
2022-08-12T07:22:30.613Z,8.30
2022-08-12T07:23:31.583Z,9.40
2022-08-12T07:24:30.765Z,8.00
2022-08-12T07:25:30.601Z,8.60
2022-08-12T07:26:30.582Z,9.80
2022-08-12T07:27:30.893Z,8.30
2022-08-12T07:28:31.210Z,7.20
2022-08-12T07:29:58.065Z,9.30
2022-08-12T07:30:30.561Z,11.60
2022-08-12T07:31:31.435Z,7.90
2022-08-12T07:32:30.650Z,8.10
2022-08-12T07:33:30.551Z,8.10
2022-08-12T07:34:30.732Z,7.60
2022-08-12T07:35:31.253Z,8.60
2022-08-12T07:36:30.542Z,7.10
2022-08-12T07:37:30.564Z,7.90
2022-08-12T07:38:30.690Z,7.90
2022-08-12T07:39:30.549Z,5.70
2022-08-12T07:40:30.491Z,6.90
2022-08-12T07:41:30.501Z,8.60
2022-08-12T07:42:30.855Z,5.60
2022-08-12T07:43:30.471Z,11.80
2022-08-12T07:44:30.478Z,7.30
2022-08-12T07:45:30.920Z,5.90
2022-08-12T07:46:31.031Z,7.40
2022-08-12T07:47:31.033Z,7.30
2022-08-12T07:48:30.731Z,5.70
2022-08-12T07:49:30.451Z,5.90
2022-08-12T07:50:30.951Z,7.50
2022-08-12T07:51:30.552Z,6.50
2022-08-12T07:52:30.411Z,6.30
2022-08-12T07:53:30.402Z,6.30
2022-08-12T07:54:30.581Z,9.00
2022-08-12T07:55:30.484Z,5.80
2022-08-12T07:56:30.381Z,7.60
2022-08-12T07:57:30.380Z,6.70
2022-08-12T07:58:30.371Z,9.40
2022-08-12T07:59:30.611Z,5.30
2022-08-12T08:00:30.931Z,8.10
2022-08-12T08:01:30.406Z,8.40
2022-08-12T08:02:31.139Z,5.90
2022-08-12T08:03:30.531Z,8.70
2022-08-12T08:04:30.743Z,8.60
2022-08-12T08:05:31.173Z,6.90
2022-08-12T08:06:30.318Z,10.60
2022-08-12T08:07:30.846Z,7.60
2022-08-12T08:08:30.301Z,4.10
2022-08-12T08:09:31.081Z,7.30
2022-08-12T08:10:30.683Z,7.30
2022-08-12T08:11:30.281Z,4.30
2022-08-12T08:12:30.281Z,7.90
2022-08-12T08:13:30.273Z,6.60
2022-08-12T08:14:30.272Z,5.20
2022-08-12T08:15:58.884Z,7.90
2022-08-12T08:16:30.242Z,4.90
2022-08-12T08:17:30.420Z,5.10
2022-08-12T08:18:30.231Z,5.40
2022-08-12T08:19:30.423Z,5.50
2022-08-12T08:20:30.231Z,3.70
2022-08-12T08:21:30.661Z,6.50
2022-08-12T08:22:40.844Z,7.30
2022-08-12T08:23:35.285Z,6.00
2022-08-12T08:24:30.191Z,4.90
2022-08-12T08:25:37.291Z,6.40
2022-08-12T08:26:30.180Z,4.40
2022-08-12T08:27:30.172Z,4.50
2022-08-12T08:28:30.163Z,5.50
2022-08-12T08:29:30.201Z,5.80
2022-08-12T08:30:31.045Z,5.30
2022-08-12T08:31:30.535Z,6.80
2022-08-12T08:32:30.132Z,7.10
2022-08-12T08:34:04.699Z,5.40
2022-08-12T08:34:54.118Z,3.30
2022-08-12T08:35:46.988Z,6.90
2022-08-12T08:36:30.111Z,5.60
2022-08-12T08:37:33.358Z,4.00
2022-08-12T08:38:33.095Z,4.50
2022-08-12T08:39:30.178Z,4.20
2022-08-12T08:40:30.293Z,4.10
2022-08-12T08:42:17.301Z,4.40
2022-08-12T08:42:30.072Z,5.90
2022-08-12T08:43:44.283Z,5.10
2022-08-12T08:44:30.050Z,6.90
2022-08-12T08:45:30.083Z,6.10
2022-08-12T08:46:30.048Z,4.30
2022-08-12T08:47:30.236Z,4.50
2022-08-12T08:48:30.753Z,6.20
2022-08-12T08:49:30.027Z,4.50
2022-08-12T08:50:30.030Z,3.90
2022-08-12T08:51:30.030Z,5.40
2022-08-12T08:52:39.315Z,5.10
2022-08-12T08:53:30.000Z,6.40
2022-08-12T08:54:29.991Z,5.50
2022-08-12T08:55:48.041Z,4.10
2022-08-12T08:56:29.974Z,5.50
2022-08-12T08:57:43.842Z,5.00
2022-08-12T08:58:29.961Z,8.20
2022-08-12T08:59:29.960Z,5.60
2022-08-12T09:00:30.071Z,6.50
2022-08-12T09:01:37.314Z,7.70
2022-08-12T09:02:29.932Z,6.90
2022-08-12T09:05:08.068Z,7.20
2022-08-12T09:05:12.088Z,10.30
2022-08-12T09:05:43.213Z,5.30
2022-08-12T09:06:37.449Z,5.50
2022-08-12T09:07:51.254Z,6.10
2022-08-12T09:08:29.997Z,6.30
2022-08-12T09:10:01.670Z,5.00
2022-08-12T09:10:30.673Z,3.20
2022-08-12T09:12:06.985Z,6.30
2022-08-12T09:12:29.871Z,5.60
2022-08-12T09:14:10.793Z,7.60
2022-08-12T09:14:30.003Z,5.20
2022-08-12T09:15:35.003Z,6.60
2022-08-12T09:16:29.841Z,4.80
2022-08-12T09:17:42.999Z,7.30
2022-08-12T09:18:33.205Z,5.20
2022-08-12T09:19:30.242Z,6.30
2022-08-12T09:20:29.833Z,3.60
2022-08-12T09:21:29.812Z,5.10
2022-08-12T09:22:29.803Z,3.40
2022-08-12T09:23:58.463Z,4.20
2022-08-12T09:24:30.144Z,3.70
2022-08-12T09:25:33.513Z,5.00
2022-08-12T09:26:29.810Z,4.60
2022-08-12T09:28:31.166Z,4.50
2022-08-12T09:30:09.819Z,5.00
2022-08-12T09:30:41.149Z,4.50
2022-08-12T09:32:04.013Z,4.40
2022-08-12T09:33:03.948Z,6.50
2022-08-12T09:34:25.500Z,4.60
2022-08-12T09:34:33.786Z,4.60
2022-08-12T09:35:29.845Z,3.00
2022-08-12T09:36:31.320Z,5.10
2022-08-12T09:37:57.835Z,5.80
2022-08-12T09:38:30.052Z,4.50
2022-08-12T09:40:03.621Z,6.00
2022-08-12T09:40:55.768Z,5.00
2022-08-12T09:42:34.014Z,7.30
2022-08-12T09:42:38.658Z,6.50
2022-08-12T09:43:30.665Z,8.10
2022-08-12T09:44:39.562Z,7.00
2022-08-12T09:46:20.063Z,6.50
2022-08-12T09:46:29.784Z,5.90
2022-08-12T09:47:29.889Z,5.20
2022-08-12T09:48:34.828Z,4.70
2022-08-12T09:49:30.631Z,6.70
2022-08-12T09:50:29.644Z,5.80
2022-08-12T09:51:37.435Z,4.40
2022-08-12T09:52:32.102Z,3.90
2022-08-12T09:53:38.806Z,3.80
2022-08-12T09:54:32.787Z,4.80
2022-08-12T09:56:01.277Z,2.60
2022-08-12T09:56:59.209Z,4.20
2022-08-12T09:58:45.240Z,3.80
2022-08-12T09:58:57.791Z,3.50
2022-08-12T10:00:15.703Z,4.20
2022-08-12T10:00:35.251Z,3.60
2022-08-12T10:01:35.392Z,4.80
2022-08-12T10:02:43.138Z,3.80
2022-08-12T10:03:32.619Z,4.20
2022-08-12T10:04:30.261Z,4.50
2022-08-12T10:06:19.477Z,6.20
2022-08-12T10:06:32.189Z,6.70
2022-08-12T10:07:39.861Z,3.50
2022-08-12T10:08:29.503Z,3.40
2022-08-12T10:09:58.822Z,5.60
2022-08-12T10:10:30.562Z,9.50
2022-08-12T10:11:30.094Z,8.40
2022-08-12T10:12:31.487Z,5.00
2022-08-12T10:13:35.131Z,4.70
2022-08-12T10:14:34.725Z,5.80
2022-08-12T10:16:01.618Z,4.50
2022-08-12T10:16:30.969Z,3.70
2022-08-12T10:17:29.454Z,3.60
2022-08-12T10:18:29.435Z,3.40
2022-08-12T10:19:36.558Z,2.50
2022-08-12T10:20:29.554Z,4.70
2022-08-12T10:21:35.575Z,5.10
2022-08-12T10:22:40.487Z,6.00
2022-08-12T10:23:40.395Z,4.50
2022-08-12T10:24:29.394Z,4.50
2022-08-12T10:26:18.260Z,6.10
2022-08-12T10:26:37.663Z,4.30
2022-08-12T10:27:39.468Z,3.50
2022-08-12T10:28:29.516Z,3.70
2022-08-12T10:30:36.955Z,5.30
2022-08-12T10:30:42.157Z,5.70
2022-08-12T10:31:29.383Z,5.40
2022-08-12T10:32:44.158Z,7.80
2022-08-12T10:33:30.931Z,3.30
2022-08-12T10:34:29.338Z,4.90
2022-08-12T10:35:29.353Z,5.10
2022-08-12T10:36:39.953Z,4.60
2022-08-12T10:38:33.382Z,2.90
2022-08-12T10:38:38.064Z,6.10
2022-08-12T10:40:00.095Z,4.50
2022-08-12T10:40:32.619Z,3.50
2022-08-12T10:41:58.057Z,4.40
2022-08-12T10:42:29.884Z,5.00
2022-08-12T10:43:29.609Z,2.80
2022-08-12T10:44:29.264Z,4.20
2022-08-12T10:45:30.586Z,3.90
2022-08-12T10:46:30.979Z,4.90
2022-08-12T10:48:19.108Z,9.90
2022-08-12T10:48:33.893Z,7.80
2022-08-12T10:50:04.700Z,5.70
2022-08-12T10:50:56.674Z,7.60
2022-08-12T10:52:03.816Z,3.90
2022-08-12T10:52:33.988Z,3.40
2022-08-12T10:53:44.821Z,4.00
2022-08-12T10:54:29.195Z,2.60
2022-08-12T10:55:29.197Z,4.40
2022-08-12T10:56:34.198Z,10.60
2022-08-12T10:58:13.728Z,6.60
2022-08-12T10:58:31.671Z,5.70
2022-08-12T10:59:39.172Z,5.10
2022-08-12T11:00:45.229Z,4.10
2022-08-12T11:04:19.751Z,2.90
2022-08-12T11:04:23.881Z,4.10
2022-08-12T11:04:26.565Z,7.80
2022-08-12T11:04:41.268Z,5.90
2022-08-12T11:07:06.103Z,5.70
2022-08-12T11:07:07.263Z,3.50
2022-08-12T11:08:35.904Z,4.00
2022-08-12T11:08:37.189Z,4.00
2022-08-12T11:09:41.792Z,4.80
2022-08-12T11:10:29.127Z,5.10
2022-08-12T11:12:35.095Z,4.50
2022-08-12T11:12:54.845Z,5.80
2022-08-12T11:13:46.110Z,4.00
2022-08-12T11:14:50.033Z,4.40
2022-08-12T11:16:02.974Z,4.30
2022-08-12T11:16:29.075Z,2.60
2022-08-12T11:17:43.433Z,4.60
2022-08-12T11:18:29.235Z,4.00
2022-08-12T11:19:29.038Z,5.40
2022-08-12T11:20:31.151Z,3.50
2022-08-12T11:21:39.615Z,3.70
2022-08-12T11:22:39.392Z,3.70
2022-08-12T11:23:37.042Z,6.60
2022-08-12T11:24:30.604Z,3.60
2022-08-12T11:25:56.571Z,4.40
2022-08-12T11:26:29.012Z,4.20
2022-08-12T11:27:29.675Z,4.80
2022-08-12T11:28:34.203Z,3.80
2022-08-12T11:30:05.726Z,3.60
2022-08-12T11:30:31.251Z,4.30
2022-08-12T11:31:29.326Z,6.30
2022-08-12T11:32:28.988Z,4.30
2022-08-12T11:34:06.045Z,2.90
2022-08-12T11:34:53.107Z,2.50
2022-08-12T11:35:29.628Z,4.40
2022-08-12T11:36:30.695Z,3.60
2022-08-12T11:37:28.935Z,5.00
2022-08-12T11:38:28.907Z,6.00
2022-08-12T11:40:29.056Z,5.60
2022-08-12T11:41:32.087Z,6.70
2022-08-12T11:42:32.508Z,5.60
2022-08-12T11:43:30.920Z,4.10
2022-08-12T11:44:36.591Z,8.10
2022-08-12T11:45:28.868Z,5.50
2022-08-12T11:46:28.990Z,4.80
2022-08-12T11:47:28.879Z,5.00
2022-08-12T11:48:28.858Z,5.00
2022-08-12T11:49:31.305Z,4.00
2022-08-12T11:50:32.375Z,4.60
2022-08-12T11:51:28.847Z,4.30
2022-08-12T11:52:56.253Z,5.80
2022-08-12T11:53:58.104Z,5.30
2022-08-12T11:54:29.621Z,5.00
2022-08-12T11:55:29.518Z,7.80
2022-08-12T11:56:38.101Z,4.70
2022-08-12T11:58:33.815Z,3.70
2022-08-12T11:59:02.935Z,4.90
2022-08-12T12:02:01.140Z,3.10
2022-08-12T12:02:28.884Z,4.10
2022-08-12T12:03:43.714Z,3.50
2022-08-12T12:04:29.656Z,8.30
2022-08-12T12:05:41.886Z,3.80
2022-08-12T12:06:29.048Z,6.10
2022-08-12T12:08:36.007Z,4.40
2022-08-12T12:08:37.727Z,3.50
2022-08-12T12:09:29.470Z,5.30
2022-08-12T12:10:28.769Z,4.70
2022-08-12T12:11:28.978Z,4.70
2022-08-12T12:12:28.751Z,3.90
2022-08-12T12:14:06.836Z,5.10
2022-08-12T12:14:38.304Z,5.20
2022-08-12T12:15:40.861Z,6.00
2022-08-12T12:16:29.928Z,6.90
2022-08-12T12:17:38.057Z,7.40
2022-08-12T12:18:30.836Z,14.90
2022-08-12T12:19:28.702Z,10.80
2022-08-12T12:20:30.589Z,8.10
2022-08-12T12:21:48.291Z,7.00
2022-08-12T12:22:30.935Z,4.10
2022-08-12T12:23:29.402Z,5.20
2022-08-12T12:24:29.561Z,7.50
2022-08-12T12:26:06.635Z,5.80
2022-08-12T12:26:35.724Z,7.30
2022-08-12T12:27:39.342Z,8.40
2022-08-12T12:28:37.609Z,5.10
2022-08-12T12:30:19.077Z,4.00
2022-08-12T12:30:29.844Z,4.60
2022-08-12T12:32:09.183Z,5.20
2022-08-12T12:32:39.587Z,4.80
2022-08-12T12:33:56.997Z,4.30
2022-08-12T12:34:30.219Z,4.30
2022-08-12T12:36:15.643Z,3.40
2022-08-12T12:36:30.070Z,3.10
2022-08-12T12:38:03.540Z,4.70
2022-08-12T12:38:29.181Z,5.50
2022-08-12T12:39:28.649Z,3.00
2022-08-12T12:40:30.153Z,5.00
2022-08-12T12:42:42.056Z,3.50
2022-08-12T12:42:42.948Z,4.30
2022-08-12T12:43:43.661Z,4.30
2022-08-12T12:44:30.378Z,2.60
2022-08-12T12:45:28.619Z,4.00
2022-08-12T12:46:28.623Z,7.20
2022-08-12T12:47:29.385Z,5.20
2022-08-12T12:48:28.563Z,5.80
2022-08-12T12:49:28.595Z,3.40
2022-08-12T12:50:35.809Z,5.70
2022-08-12T12:51:49.050Z,5.00
2022-08-12T12:52:28.559Z,4.90
2022-08-12T12:54:06.145Z,4.10
2022-08-12T12:54:29.088Z,5.10
2022-08-12T12:55:35.560Z,5.60
2022-08-12T12:56:31.519Z,6.60
2022-08-12T12:57:58.846Z,5.90
2022-08-12T12:58:29.114Z,5.80
2022-08-12T12:59:54.775Z,5.50
2022-08-12T13:00:28.507Z,3.30
2022-08-12T13:01:32.989Z,3.90
2022-08-12T13:02:31.429Z,4.70
2022-08-12T13:03:28.945Z,6.60
2022-08-12T13:04:29.315Z,6.30
2022-08-12T13:05:28.465Z,3.00
2022-08-12T13:06:30.260Z,4.80
2022-08-12T13:07:49.001Z,4.10
2022-08-12T13:08:35.788Z,3.20
2022-08-12T13:09:28.698Z,4.90
2022-08-12T13:10:30.824Z,4.60
2022-08-12T13:11:41.483Z,3.70
2022-08-12T13:12:28.507Z,3.10
2022-08-12T13:14:07.122Z,5.20
2022-08-12T13:14:31.307Z,5.90
2022-08-12T13:15:45.443Z,3.90
2022-08-12T13:16:28.758Z,3.30